Time;durP1;ratioP1;P1;durP2;ratioP2;P2;SDS_P1;SDS_P2;PMS_P1;PMS_P2;Temp;Humidity;BMP_temperature;BMP_pressure;BME280_temperature;BME280_humidity;BME280_pressure;Samples;Min_cycle;Max_cycle;Signal;HPM_P1;HPM_P2
2023/07/12 00:00:29;;;;;;;4.50;4.10;;;;;;;14.09;67.80;99630.17;217904;1257;140497;-67
2023/07/12 00:05:54;;;;;;;4.60;4.20;;;;;;;14.09;67.47;99619.45;218659;1257;222447;-66
2023/07/12 00:10:59;;;;;;;10.00;4.90;;;;;;;14.04;67.59;99614.10;217974;1260;140177;-67
2023/07/12 00:16:11;;;;;;;5.20;4.70;;;;;;;14.07;68.17;99601.60;219004;1257;140413;-68
2023/07/12 00:21:22;;;;;;;5.90;4.90;;;;;;;14.18;68.51;99603.00;218305;1257;140895;-67
2023/07/12 00:26:33;;;;;;;4.50;4.10;;;;;;;14.33;69.17;99614.86;217849;1259;140233;-66
2023/07/12 00:31:38;;;;;;;12.30;5.20;;;;;;;14.52;69.21;99613.45;218596;1257;140323;-66
2023/07/12 00:36:43;;;;;;;9.90;5.50;;;;;;;14.71;69.45;99606.96;219707;1255;140749;-66
2023/07/12 00:42:06;;;;;;;10.90;5.40;;;;;;;14.88;69.44;99590.80;220469;1259;140036;-68
2023/07/12 00:47:12;;;;;;;5.50;4.70;;;;;;;15.03;69.46;99582.54;220432;1257;140705;-69
2023/07/12 00:52:19;;;;;;;5.80;4.30;;;;;;;15.14;69.33;99571.81;220506;1257;141796;-66
2023/07/12 00:57:25;;;;;;;9.30;5.80;;;;;;;15.19;69.03;99566.17;219020;1257;141906;-67
2023/07/12 01:02:29;;;;;;;6.10;5.40;;;;;;;15.20;68.97;99555.17;219997;1256;139693;-70
2023/07/12 01:07:34;;;;;;;5.60;5.10;;;;;;;15.16;68.79;99549.15;219723;1257;140276;-67
2023/07/12 01:12:39;;;;;;;6.80;5.30;;;;;;;15.12;68.72;99543.73;219442;1259;140036;-67
2023/07/12 01:17:44;;;;;;;7.90;5.90;;;;;;;15.08;68.67;99544.31;218878;1259;140209;-66
2023/07/12 01:22:55;;;;;;;9.60;5.50;;;;;;;15.07;68.91;99555.21;218030;1259;140159;-67
2023/07/12 01:27:59;;;;;;;6.60;5.00;;;;;;;15.03;68.91;99555.16;218030;1257;140520;-66
2023/07/12 01:33:03;;;;;;;5.50;4.70;;;;;;;14.92;68.74;99556.30;218898;1256;140582;-69
2023/07/12 01:38:09;;;;;;;9.70;6.40;;;;;;;14.80;68.64;99559.98;217733;1257;140785;-64
2023/07/12 01:43:13;;;;;;;6.50;5.10;;;;;;;14.69;68.66;99559.84;219275;1257;140501;-64
2023/07/12 01:48:17;;;;;;;6.40;5.60;;;;;;;14.61;68.85;99551.95;217697;1256;142015;-63
2023/07/12 01:53:22;;;;;;;8.50;5.10;;;;;;;14.57;68.99;99544.76;218060;1257;142913;-63
2023/07/12 01:58:28;;;;;;;6.80;6.20;;;;;;;14.54;69.19;99541.15;218373;1257;141151;-65
2023/07/12 02:03:33;;;;;;;5.70;4.20;;;;;;;14.50;69.30;99531.76;218531;1257;140208;-71
2023/07/12 02:08:37;;;;;;;5.80;4.30;;;;;;;14.39;69.19;99526.61;219082;1255;139934;-63
2023/07/12 02:13:42;;;;;;;6.10;5.50;;;;;;;14.30;69.22;99527.06;217790;1256;140337;-65
2023/07/12 02:18:46;;;;;;;12.30;5.10;;;;;;;14.20;69.41;99523.38;219323;1257;140318;-66
2023/07/12 02:23:53;;;;;;;6.00;4.80;;;;;;;14.11;69.75;99522.55;219894;1257;140373;-65
2023/07/12 02:28:57;;;;;;;;;;;;;;;13.99;69.69;99511.85;218833;1257;140020;-66
2023/07/12 02:34:02;;;;;;;25.10;6.00;;;;;;;13.94;70.06;99506.14;219151;1256;126211;-67
2023/07/12 02:39:06;;;;;;;11.80;5.60;;;;;;;13.96;70.43;99496.61;219825;1256;140706;-66
2023/07/12 02:44:12;;;;;;;7.00;5.40;;;;;;;13.95;70.35;99491.83;220225;1257;140754;-66
2023/07/12 02:49:16;;;;;;;8.80;5.60;;;;;;;13.91;70.42;99486.24;220300;1257;141523;-66
2023/07/12 02:54:20;;;;;;;14.50;6.20;;;;;;;13.90;70.77;99491.66;219184;1256;140383;-66
2023/07/12 02:59:25;;;;;;;8.30;5.60;;;;;;;13.94;71.09;99492.75;219482;1260;141461;-66
2023/07/12 03:04:30;;;;;;;7.70;6.00;;;;;;;13.99;71.15;99484.30;219807;1257;140698;-66
2023/07/12 03:09:35;;;;;;;9.00;5.30;;;;;;;14.05;71.23;99485.12;219746;1260;140784;-66
2023/07/12 03:14:39;;;;;;;8.20;4.50;;;;;;;14.07;71.09;99480.08;219358;1261;140594;-66
2023/07/12 03:19:43;;;;;;;11.60;6.20;;;;;;;14.07;71.16;99472.20;219028;1256;139702;-66
2023/07/12 03:24:48;;;;;;;6.20;5.70;;;;;;;14.16;71.55;99463.32;218752;1256;141126;-66
2023/07/12 03:29:52;;;;;;;15.40;5.50;;;;;;;14.33;72.00;99453.39;218775;1256;140954;-65
2023/07/12 03:34:56;;;;;;;5.70;4.50;;;;;;;14.46;72.09;99441.90;218964;1257;140287;-66
2023/07/12 03:40:00;;;;;;;11.40;5.70;;;;;;;14.64;72.36;99439.06;218732;1257;140186;-65
2023/07/12 03:45:05;;;;;;;8.90;5.70;;;;;;;14.90;72.57;99434.65;217896;1256;140173;-66
2023/07/12 03:50:10;;;;;;;6.70;5.70;;;;;;;15.29;72.91;99427.43;218072;1260;140039;-66
2023/07/12 03:55:14;;;;;;;8.10;5.20;;;;;;;15.77;72.99;99429.44;218174;1260;140103;-65
2023/07/12 04:00:19;;;;;;;8.00;5.60;;;;;;;16.16;72.87;99433.48;218100;1257;139817;-66
2023/07/12 04:05:23;;;;;;;10.70;4.70;;;;;;;16.64;72.27;99426.95;218145;1260;141025;-66
2023/07/12 04:10:28;;;;;;;9.90;6.50;;;;;;;16.91;71.81;99419.98;217715;1256;141191;-66
2023/07/12 04:15:34;;;;;;;5.30;4.80;;;;;;;17.11;71.30;99417.69;218131;1260;140111;-66
2023/07/12 04:20:38;;;;;;;7.20;5.60;;;;;;;17.28;70.74;99418.44;217784;1257;141092;-66
2023/07/12 04:25:42;;;;;;;6.90;6.30;;;;;;;17.60;70.03;99409.65;218546;1257;139819;-66
2023/07/12 04:30:46;;;;;;;7.90;5.50;;;;;;;18.49;68.80;99403.73;218330;1257;140859;-66
2023/07/12 04:35:51;;;;;;;7.70;5.90;;;;;;;19.53;67.19;99400.19;218678;1257;140087;-65
2023/07/12 04:40:56;;;;;;;6.80;5.80;;;;;;;19.67;66.45;99396.31;218670;1257;140133;-66
2023/07/12 04:46:01;;;;;;;9.00;5.90;;;;;;;20.37;64.66;99391.50;220289;1257;140781;-66
2023/07/12 04:51:05;;;;;;;5.60;4.90;;;;;;;21.14;63.11;99387.77;219755;1256;140923;-66
2023/07/12 04:56:10;;;;;;;4.40;4.00;;;;;;;21.84;61.72;99377.45;220158;1256;140309;-65
2023/07/12 05:01:14;;;;;;;5.20;4.70;;;;;;;22.60;59.93;99363.92;220060;1258;152200;-66
2023/07/12 05:06:19;;;;;;;6.10;4.10;;;;;;;22.78;58.99;99360.30;218601;1259;139674;-65
2023/07/12 05:11:27;;;;;;;5.70;4.60;;;;;;;23.03;57.67;99355.89;218961;1262;139618;-65
2023/07/12 05:16:31;;;;;;;4.70;4.30;;;;;;;23.94;55.92;99364.80;219240;1259;140076;-65
2023/07/12 05:21:35;;;;;;;5.90;5.30;;;;;;;25.43;53.37;99371.86;218738;1260;139656;-65
2023/07/12 05:26:39;;;;;;;5.50;4.50;;;;;;;27.50;50.76;99375.48;218741;1260;139066;-67
2023/07/12 05:31:44;;;;;;;;;;;;;;;29.81;47.44;99375.34;218102;1261;139320;-66
2023/07/12 05:36:49;;;;;;;4.40;4.00;;;;;;;30.51;44.97;99390.56;218783;1259;125593;-66
2023/07/12 05:41:54;;;;;;;4.80;4.00;;;;;;;30.63;43.16;99391.96;218629;1258;139553;-66
2023/07/12 05:46:59;;;;;;;6.90;4.20;;;;;;;30.14;42.19;99387.38;218976;1258;139484;-67
2023/07/12 05:52:07;;;;;;;4.20;3.30;;;;;;;30.28;41.42;99381.73;217957;1260;140007;-66
2023/07/12 05:57:13;;;;;;;3.80;3.50;;;;;;;30.27;40.67;99372.52;217638;1260;139222;-66
2023/07/12 06:02:17;;;;;;;5.80;3.40;;;;;;;29.54;40.35;99364.70;218083;1260;138879;-66
2023/07/12 06:07:22;;;;;;;3.70;3.20;;;;;;;29.34;40.95;99359.92;218605;1257;139664;-66
2023/07/12 06:12:27;;;;;;;5.00;3.70;;;;;;;29.19;40.61;99357.65;218426;1259;140424;-66
2023/07/12 06:17:31;;;;;;;4.90;4.20;;;;;;;28.95;40.87;99352.40;218501;1257;139533;-65
2023/07/12 06:22:37;;;;;;;15.40;4.00;;;;;;;28.65;40.61;99358.20;218825;1258;139534;-66
2023/07/12 06:27:40;;;;;;;5.00;3.50;;;;;;;28.41;40.99;99352.50;219844;1258;139691;-66
2023/07/12 06:32:46;;;;;;;6.30;4.20;;;;;;;28.27;40.96;99348.23;219214;1257;139459;-67
2023/07/12 06:37:50;;;;;;;4.10;3.70;;;;;;;28.08;40.92;99339.77;220468;1257;141261;-67
2023/07/12 06:42:54;;;;;;;3.70;3.30;;;;;;;27.87;40.87;99326.34;220662;1257;140692;-66
2023/07/12 06:47:58;;;;;;;7.90;4.20;;;;;;;27.69;40.90;99309.86;218735;1260;139401;-66
2023/07/12 06:53:02;;;;;;;5.40;4.50;;;;;;;27.59;41.19;99298.30;219823;1257;139358;-67
2023/07/12 06:58:07;;;;;;;5.20;3.20;;;;;;;27.54;41.35;99289.33;220133;1257;140960;-66
2023/07/12 07:03:14;;;;;;;3.80;3.40;;;;;;;27.41;41.16;99282.61;220073;1257;139262;-66
2023/07/12 07:08:19;;;;;;;5.60;3.50;;;;;;;27.33;40.71;99275.73;219773;1257;141955;-66
2023/07/12 07:13:25;;;;;;;7.40;4.10;;;;;;;27.28;40.72;99258.54;219480;1257;139976;-66
2023/07/12 07:18:28;;;;;;;7.40;4.40;;;;;;;27.43;40.85;99250.21;218732;1256;139528;-66
2023/07/12 07:23:41;;;;;;;3.60;3.30;;;;;;;27.69;40.86;99242.25;218647;1257;139468;-66
2023/07/12 07:28:48;;;;;;;3.70;3.50;;;;;;;28.06;40.57;99232.87;218832;1258;139983;-66
2023/07/12 07:33:52;;;;;;;7.20;4.70;;;;;;;28.24;40.08;99228.66;218365;1257;139779;-66
2023/07/12 07:39:00;;;;;;;4.40;4.00;;;;;;;28.66;40.22;99234.48;217935;1257;139475;-66
2023/07/12 07:44:04;;;;;;;6.50;3.90;;;;;;;29.16;39.63;99233.86;218979;1260;139473;-65
2023/07/12 07:49:07;;;;;;;4.60;4.00;;;;;;;29.33;38.66;99233.39;218325;1257;139450;-66
2023/07/12 07:54:11;;;;;;;7.80;3.50;;;;;;;29.60;38.33;99231.48;218917;1257;139640;-66
2023/07/12 07:59:15;;;;;;;8.60;3.70;;;;;;;29.62;38.29;99231.34;218203;1257;139577;-66
2023/07/12 08:04:18;;;;;;;4.20;3.60;;;;;;;29.83;38.05;99232.06;217875;1258;139211;-66
2023/07/12 08:09:23;;;;;;;4.00;3.70;;;;;;;30.38;38.38;99229.02;218827;1257;139514;-67
2023/07/12 08:14:27;;;;;;;13.50;4.20;;;;;;;31.08;37.62;99220.55;217874;1257;139439;-67
2023/07/12 08:19:32;;;;;;;31.40;5.90;;;;;;;31.34;36.69;99216.23;218730;1258;140020;-67
2023/07/12 08:24:35;;;;;;;5.40;3.40;;;;;;;31.82;36.63;99209.49;219108;1257;139827;-67
2023/07/12 08:29:40;;;;;;;5.90;4.20;;;;;;;32.25;36.01;99199.91;219115;1256;139677;-66
2023/07/12 08:34:43;;;;;;;5.60;3.80;;;;;;;32.25;35.27;99186.98;219366;1257;139772;-67
2023/07/12 08:39:46;;;;;;;6.90;4.40;;;;;;;32.14;34.75;99176.10;220363;1258;141382;-70
2023/07/12 08:44:50;;;;;;;4.70;4.30;;;;;;;31.94;34.92;99170.23;220250;1256;139818;-70
2023/07/12 08:49:53;;;;;;;5.10;4.60;;;;;;;31.89;34.75;99166.44;220378;1256;139866;-70
2023/07/12 08:55:00;;;;;;;4.60;4.20;;;;;;;31.91;34.82;99153.45;220448;1257;140994;-70
2023/07/12 09:00:12;;;;;;;5.90;4.60;;;;;;;31.83;34.72;99165.41;219534;1260;139547;-69
2023/07/12 09:05:23;;;;;;;6.30;4.50;;;;;;;31.72;35.12;99167.27;218449;1256;139536;-70
2023/07/12 09:10:39;;;;;;;6.30;4.90;;;;;;;31.46;34.77;99157.33;219176;1257;139349;-69
2023/07/12 09:15:52;;;;;;;4.90;4.40;;;;;;;31.39;35.29;99158.73;219352;1256;140340;-69
2023/07/12 09:20:59;;;;;;;7.00;5.50;;;;;;;31.22;35.06;99151.09;218737;1257;139750;-66
2023/07/12 09:26:29;;;;;;;9.80;6.10;;;;;;;31.15;35.73;99152.80;219142;1256;139577;-67
2023/07/12 09:31:36;;;;;;;7.00;5.10;;;;;;;31.41;35.94;99144.65;218688;1257;139337;-67
2023/07/12 09:36:39;;;;;;;6.10;5.60;;;;;;;31.61;36.16;99137.69;218982;1257;139496;-67
2023/07/12 09:41:50;;;;;;;8.50;5.80;;;;;;;31.70;35.79;99137.52;218960;1256;140176;-67
2023/07/12 09:47:03;;;;;;;7.40;5.40;;;;;;;31.51;35.63;99131.85;218324;1256;139962;-67
2023/07/12 09:52:33;;;;;;;5.30;4.70;;;;;;;31.52;36.18;99128.86;218361;1256;139817;-67
2023/07/12 09:58:06;;;;;;;5.80;5.30;;;;;;;31.60;36.05;99133.52;218571;1257;140578;-67
2023/07/12 10:03:35;;;;;;;6.70;6.20;;;;;;;31.77;36.25;99140.30;218093;1257;139804;-67
2023/07/12 10:09:12;;;;;;;6.70;6.00;;;;;;;31.71;36.19;99144.52;217993;1257;141284;-68
2023/07/12 10:14:31;;;;;;;7.30;6.60;;;;;;;31.56;36.59;99146.09;218551;1256;140240;-67
2023/07/12 10:19:40;;;;;;;8.70;6.30;;;;;;;31.40;36.74;99151.64;218769;1256;139293;-67
2023/07/12 10:24:49;;;;;;;10.50;6.50;;;;;;;31.09;37.21;99165.66;218187;1257;141355;-66
2023/07/12 10:30:00;;;;;;;10.10;7.00;;;;;;;30.80;37.37;99177.59;218477;1256;139578;-67
2023/07/12 10:35:22;;;;;;;10.40;6.70;;;;;;;30.49;37.66;99179.71;219535;1256;140070;-67
2023/07/12 10:40:36;;;;;;;7.80;6.50;;;;;;;30.15;37.97;99182.00;217976;1256;973218;-67
2023/07/12 10:45:41;;;;;;;12.70;7.70;;;;;;;29.64;38.65;99176.67;220534;1256;139767;-68
2023/07/12 10:50:55;;;;;;;9.70;7.10;;;;;;;29.40;39.53;99170.80;220500;1256;139719;-68
2023/07/12 10:56:10;;;;;;;8.50;7.60;;;;;;;29.25;39.81;99173.90;218784;1257;140760;-68
2023/07/12 11:01:35;;;;;;;8.00;7.20;;;;;;;29.06;40.44;99174.74;220312;1256;139411;-67
2023/07/12 11:06:59;;;;;;;10.10;7.50;;;;;;;28.97;41.12;99187.48;220484;1257;139154;-68
2023/07/12 11:12:08;;;;;;;9.60;7.20;;;;;;;29.05;41.17;99189.95;219136;1256;139661;-68
2023/07/12 11:17:36;;;;;;;8.60;6.80;;;;;;;28.95;41.30;99196.80;219514;1256;140296;-68
2023/07/12 11:23:20;;;;;;;8.50;7.60;;;;;;;28.68;41.67;99194.94;219116;1256;139185;-67
2023/07/12 11:28:49;;;;;;;7.20;6.60;;;;;;;28.30;41.81;99177.17;218463;1257;140087;-67
2023/07/12 11:34:16;;;;;;;15.20;8.20;;;;;;;28.08;42.55;99148.44;218706;1256;138845;-66
2023/07/12 11:39:27;;;;;;;9.00;7.90;;;;;;;27.91;43.07;99133.13;218863;1256;139800;-67
2023/07/12 11:44:35;;;;;;;18.70;8.90;;;;;;;27.81;43.84;99159.55;218523;1257;139658;-67
2023/07/12 11:49:47;;;;;;;11.30;9.20;;;;;;;27.77;44.45;99163.23;218503;1256;140963;-66
2023/07/12 11:54:53;;;;;;;10.40;8.60;;;;;;;27.85;44.76;99164.46;218287;1257;139301;-67
2023/07/12 11:59:57;;;;;;;;;;;;;;;27.96;45.12;99156.52;217737;1257;139522;-66
2023/07/12 12:05:05;;;;;;;9.10;8.10;;;;;;;27.95;45.25;99164.80;218163;1256;126952;-66
2023/07/12 12:10:32;;;;;;;7.20;6.50;;;;;;;27.97;45.73;99154.11;218231;1260;139433;-67
2023/07/12 12:15:52;;;;;;;8.90;8.00;;;;;;;28.08;45.65;99156.11;218122;1256;139285;-67
2023/07/12 12:21:04;;;;;;;9.10;7.00;;;;;;;28.22;45.61;99156.35;217292;1257;140053;-66
2023/07/12 12:26:19;;;;;;;7.70;6.90;;;;;;;28.39;45.35;99154.48;219291;1256;140945;-67
2023/07/12 12:31:28;;;;;;;8.10;6.70;;;;;;;28.47;45.20;99156.62;217797;1260;140190;-67
2023/07/12 12:36:34;;;;;;;7.60;6.90;;;;;;;28.46;45.03;99155.97;219017;1256;139800;-67
2023/07/12 12:41:45;;;;;;;7.90;7.10;;;;;;;28.52;45.26;99144.94;219895;1256;140065;-67
2023/07/12 12:46:54;;;;;;;8.20;7.40;;;;;;;28.73;44.96;99155.85;219612;1256;140498;-68
2023/07/12 12:52:32;;;;;;;11.70;7.20;;;;;;;28.91;44.46;99161.93;220380;1256;139927;-67
2023/07/12 12:57:57;;;;;;;9.70;6.60;;;;;;;29.25;44.49;99158.45;220301;1255;140084;-67
2023/07/12 13:03:07;;;;;;;8.10;7.30;;;;;;;29.52;44.19;99155.04;220533;1256;140137;-68
2023/07/12 13:08:32;;;;;;;6.10;5.60;;;;;;;29.46;43.76;99152.84;219344;1256;139198;-70
2023/07/12 13:13:40;;;;;;;11.90;6.70;;;;;;;29.13;43.63;99155.63;219117;1257;140409;-67
2023/07/12 13:18:48;;;;;;;8.80;7.00;;;;;;;29.02;43.87;99161.63;218498;1256;139784;-67
2023/07/12 13:24:14;;;;;;;8.50;7.50;;;;;;;29.10;43.97;99160.69;217881;1259;140460;-68
2023/07/12 13:29:19;;;;;;;6.90;6.30;;;;;;;29.10;43.72;99170.88;219138;1256;140046;-67
2023/07/12 13:34:24;;;;;;;8.30;6.10;;;;;;;28.99;43.92;99174.34;218311;1255;140138;-67
2023/07/12 13:39:56;;;;;;;9.60;6.90;;;;;;;28.81;43.80;99177.76;218602;1256;140024;-68
2023/07/12 13:45:02;;;;;;;8.60;6.00;;;;;;;28.81;44.65;99187.88;217835;1256;140279;-67
2023/07/12 13:50:16;;;;;;;5.20;4.80;;;;;;;29.12;44.65;99188.80;217841;1256;140429;-67
2023/07/12 13:55:23;;;;;;;9.50;5.30;;;;;;;29.46;44.36;99190.98;218946;1256;140546;-67
2023/07/12 14:00:28;;;;;;;11.00;6.00;;;;;;;29.34;43.77;99187.83;218491;1257;140239;-68
2023/07/12 14:05:53;;;;;;;7.50;6.80;;;;;;;29.27;43.71;99179.42;218527;1256;140933;-65
2023/07/12 14:11:01;;;;;;;7.60;6.50;;;;;;;29.09;43.59;99168.61;218405;1256;139113;-65
2023/07/12 14:16:09;;;;;;;7.30;6.20;;;;;;;28.90;43.88;99165.91;218785;1256;140290;-64
2023/07/12 14:21:17;;;;;;;8.50;6.00;;;;;;;28.95;44.40;99161.83;219339;1256;139284;-67
2023/07/12 14:26:25;;;;;;;12.00;6.70;;;;;;;29.19;44.30;99160.34;219420;1257;221477;-67
2023/07/12 14:31:37;;;;;;;7.50;6.70;;;;;;;29.36;44.13;99154.73;218964;1256;140110;-67
2023/07/12 14:36:43;;;;;;;9.70;6.30;;;;;;;29.44;44.45;99162.15;219831;1256;139970;-65
2023/07/12 14:41:50;;;;;;;7.20;6.50;;;;;;;29.39;44.26;99156.29;218493;1256;139831;-67
2023/07/12 14:46:54;;;;;;;;;;;;;;;29.19;44.30;99157.67;220579;1256;138913;-71
2023/07/12 14:52:01;;;;;;;8.30;7.00;;;;;;;29.10;44.62;99158.18;220116;1257;125511;-70
2023/07/12 14:57:16;;;;;;;8.00;6.70;;;;;;;29.14;44.84;99158.00;219802;1257;140632;-71
2023/07/12 15:02:52;;;;;;;7.60;6.90;;;;;;;29.23;44.74;99158.91;219255;1256;138763;-66
2023/07/12 15:08:20;;;;;;;7.90;7.20;;;;;;;29.40;44.71;99152.77;220490;1256;139504;-67
2023/07/12 15:13:31;;;;;;;7.40;6.70;;;;;;;29.53;44.35;99153.02;219743;1256;140472;-68
2023/07/12 15:18:35;;;;;;;7.30;6.40;;;;;;;29.43;44.20;99148.64;218031;1259;141178;-67
2023/07/12 15:23:41;;;;;;;7.70;6.10;;;;;;;29.23;44.02;99144.08;218840;1255;142138;-68
2023/07/12 15:28:49;;;;;;;6.70;6.10;;;;;;;29.00;44.01;99139.63;218749;1256;139988;-69
2023/07/12 15:33:55;;;;;;;6.20;5.40;;;;;;;28.91;44.65;99124.06;219172;1256;139796;-66
2023/07/12 15:39:06;;;;;;;6.40;5.00;;;;;;;28.86;44.70;99123.91;218483;1256;139514;-65
2023/07/12 15:44:11;;;;;;;7.50;4.60;;;;;;;28.94;44.72;99110.07;217913;1257;140209;-68
2023/07/12 15:49:16;;;;;;;6.30;5.80;;;;;;;29.31;44.52;99094.76;219310;1256;139205;-73
2023/07/12 15:54:27;;;;;;;5.90;5.30;;;;;;;29.53;44.57;99084.98;217680;1257;140772;-72
2023/07/12 15:59:33;;;;;;;6.50;5.90;;;;;;;29.56;43.96;99095.30;218625;1256;140658;-74
2023/07/12 16:04:39;;;;;;;6.00;5.00;;;;;;;29.50;43.83;99096.02;218125;1256;140389;-72
2023/07/12 16:09:44;;;;;;;7.60;5.60;;;;;;;29.32;43.84;99093.82;218093;1259;139636;-74
2023/07/12 16:14:51;;;;;;;4.70;4.40;;;;;;;29.12;43.74;99092.50;218392;1259;140415;-66
2023/07/12 16:19:56;;;;;;;7.10;5.50;;;;;;;29.07;44.11;99102.71;218578;1256;142223;-66
2023/07/12 16:25:02;;;;;;;5.50;5.00;;;;;;;28.92;44.16;99109.98;218566;1256;234327;-65
2023/07/12 16:30:17;;;;;;;5.80;5.30;;;;;;;28.85;44.52;99114.58;218182;1256;140773;-65
2023/07/12 16:35:23;;;;;;;6.20;5.10;;;;;;;28.81;44.48;99118.50;218412;1257;141153;-65
2023/07/12 16:40:29;;;;;;;6.30;5.30;;;;;;;28.73;44.76;99137.89;219837;1256;140690;-73
2023/07/12 16:45:38;;;;;;;5.80;5.40;;;;;;;28.56;44.85;99158.95;219307;1256;139014;-71
2023/07/12 16:50:52;;;;;;;6.30;2.00;;;;;;;28.21;44.73;99236.91;220342;1257;233919;-70
2023/07/12 16:56:05;;;;;;;6.20;1.50;;;;;;;27.13;44.94;99250.54;220411;1256;141087;-66
2023/07/12 17:01:27;;;;;;;2.40;1.50;;;;;;;26.17;46.42;99260.17;219554;1259;140028;-65
2023/07/12 17:06:50;;;;;;;5.30;1.70;;;;;;;25.57;48.07;99248.90;219542;1256;140446;-63
2023/07/12 17:11:54;;;;;;;3.30;1.50;;;;;;;25.17;48.88;99240.69;219454;1257;140375;-68
2023/07/12 17:17:00;;;;;;;11.30;1.70;;;;;;;24.85;49.66;99227.05;219539;1256;140570;-70
2023/07/12 17:22:17;;;;;;;5.50;1.50;;;;;;;24.67;50.13;99226.00;218791;1257;139623;-70
2023/07/12 17:27:34;;;;;;;1.80;1.60;;;;;;;24.53;50.43;99233.17;218440;1256;139564;-69
2023/07/12 17:32:41;;;;;;;2.30;1.60;;;;;;;24.37;50.68;99229.46;218992;1256;140800;-64
2023/07/12 17:37:47;;;;;;;3.80;1.80;;;;;;;24.24;51.29;99220.88;218686;1256;140455;-70
2023/07/12 17:42:52;;;;;;;7.40;2.10;;;;;;;24.12;51.73;99209.37;217588;1256;139319;-70
2023/07/12 17:47:57;;;;;;;2.20;1.90;;;;;;;23.99;52.02;99201.05;218002;1257;139195;-69
2023/07/12 17:53:01;;;;;;;2.20;1.90;;;;;;;23.83;52.47;99212.85;217688;1256;140215;-67
2023/07/12 17:58:07;;;;;;;1.60;1.60;;;;;;;23.65;52.93;99234.20;218475;1256;140180;-65
2023/07/12 18:03:22;;;;;;;4.50;1.80;;;;;;;23.51;53.85;99266.94;219500;1256;139617;-64
2023/07/12 18:08:27;;;;;;;2.60;2.40;;;;;;;23.33;54.83;99272.30;217760;1256;139371;-64
2023/07/12 18:13:32;;;;;;;2.50;2.30;;;;;;;23.13;55.78;99271.48;219538;1256;139824;-65
2023/07/12 18:18:38;;;;;;;;;;;;;;;23.01;56.46;99274.48;218330;1256;139709;-68
2023/07/12 18:23:43;;;;;;;3.00;2.50;;;;;;;22.88;58.02;99282.67;218500;1256;126063;-65
2023/07/12 18:28:48;;;;;;;3.10;2.80;;;;;;;22.71;58.75;99279.30;220327;1257;140803;-69
2023/07/12 18:33:53;;;;;;;4.30;2.10;;;;;;;22.57;59.79;99288.20;220492;1257;140759;-66
2023/07/12 18:39:07;;;;;;;6.30;2.70;;;;;;;22.48;60.44;99291.64;219973;1257;140845;-65
2023/07/12 18:44:13;;;;;;;4.00;2.80;;;;;;;22.39;60.81;99291.73;219658;1257;140166;-63
2023/07/12 18:49:20;;;;;;;6.10;2.40;;;;;;;22.22;61.00;99294.94;219741;1257;140688;-65
2023/07/12 18:54:26;;;;;;;5.30;3.20;;;;;;;22.15;61.37;99289.45;220361;1256;140152;-66
2023/07/12 18:59:30;;;;;;;5.50;3.20;;;;;;;22.15;61.79;99293.73;219349;1255;140691;-63
2023/07/12 19:04:34;;;;;;;3.00;2.80;;;;;;;22.11;62.22;99291.05;219189;1259;140456;-66
2023/07/12 19:09:40;;;;;;;3.30;2.90;;;;;;;22.05;62.65;99282.89;219027;1256;141241;-66
2023/07/12 19:14:48;;;;;;;4.30;2.90;;;;;;;21.96;63.02;99280.45;218609;1257;140292;-66
2023/07/12 19:19:54;;;;;;;14.00;3.50;;;;;;;21.84;63.54;99291.45;217628;1259;141337;-64
2023/07/12 19:24:59;;;;;;;5.90;3.00;;;;;;;21.63;63.88;99297.10;217975;1257;140091;-65
2023/07/12 19:30:04;;;;;;;6.30;3.50;;;;;;;21.40;64.49;99303.95;218741;1257;140810;-65
2023/07/12 19:35:17;;;;;;;;;;;;;;;21.33;65.09;99310.77;218166;1257;140995;-65
2023/07/12 19:40:24;;;;;;;5.10;3.50;;;;;;;21.24;65.57;99322.14;218112;1257;126625;-65
2023/07/12 19:45:29;;;;;;;10.30;4.00;;;;;;;21.14;65.65;99319.82;217679;1259;140323;-68
2023/07/12 19:50:34;;;;;;;3.30;3.00;;;;;;;21.10;65.94;99320.38;217781;1257;140359;-67
2023/07/12 19:55:38;;;;;;;5.50;3.50;;;;;;;21.01;66.22;99310.45;217798;1257;140056;-66
2023/07/12 20:00:43;;;;;;;4.00;2.80;;;;;;;20.91;66.38;99302.02;219442;1256;140896;-68
2023/07/12 20:05:48;;;;;;;3.80;3.40;;;;;;;20.78;66.50;99300.04;217635;1257;140155;-65
2023/07/12 20:10:56;;;;;;;4.40;3.10;;;;;;;20.65;66.59;99308.14;220024;1256;139632;-73
2023/07/12 20:16:00;;;;;;;5.10;4.10;;;;;;;20.54;66.76;99318.38;218840;1257;140459;-65
2023/07/12 20:21:06;;;;;;;7.70;4.10;;;;;;;20.37;66.81;99329.47;219291;1256;140385;-67
2023/07/12 20:26:13;;;;;;;4.00;3.70;;;;;;;20.23;67.06;99329.35;220397;1257;140757;-65
2023/07/12 20:31:21;;;;;;;6.70;3.20;;;;;;;20.05;67.29;99336.02;220566;1257;140114;-66
2023/07/12 20:36:32;;;;;;;7.00;3.90;;;;;;;19.88;67.77;99332.65;220322;1257;140933;-65
2023/07/12 20:41:43;;;;;;;6.60;3.80;;;;;;;19.81;68.38;99336.90;220131;1257;141811;-65
2023/07/12 20:46:49;;;;;;;7.40;4.40;;;;;;;19.81;68.67;99348.00;219135;1259;141045;-65
2023/07/12 20:51:58;;;;;;;5.70;3.60;;;;;;;19.74;68.67;99349.72;218179;1257;140642;-64
2023/07/12 20:57:04;;;;;;;5.20;4.20;;;;;;;19.65;69.07;99344.13;218881;1257;141067;-67
2023/07/12 21:02:10;;;;;;;7.80;4.00;;;;;;;19.62;69.21;99347.94;219181;1257;139788;-65
2023/07/12 21:07:15;;;;;;;4.90;4.20;;;;;;;19.54;69.36;99351.36;218264;1257;140375;-65
2023/07/12 21:12:19;;;;;;;7.00;4.10;;;;;;;19.49;69.73;99350.73;219488;1257;141224;-65
2023/07/12 21:17:24;;;;;;;6.30;4.60;;;;;;;19.45;69.83;99354.91;218624;1256;140835;-72
2023/07/12 21:22:29;;;;;;;5.30;4.30;;;;;;;19.32;69.80;99357.17;218619;1257;141064;-65
2023/07/12 21:27:34;;;;;;;6.00;4.50;;;;;;;19.20;70.23;99357.33;218030;1259;140160;-66
2023/07/12 21:32:37;;;;;;;5.60;4.40;;;;;;;19.18;70.74;99352.45;218295;1257;141943;-65
2023/07/12 21:37:42;;;;;;;8.50;4.20;;;;;;;19.09;70.68;99352.06;217880;1256;141102;-65
2023/07/12 21:42:47;;;;;;;8.20;5.10;;;;;;;19.00;71.13;99349.80;218709;1256;140116;-66
2023/07/12 21:47:51;;;;;;;12.20;5.20;;;;;;;18.93;71.49;99348.02;218255;1257;140000;-63
2023/07/12 21:52:54;;;;;;;5.80;5.20;;;;;;;18.91;72.05;99350.86;218297;1257;140617;-66
2023/07/12 21:58:00;;;;;;;6.80;4.80;;;;;;;18.90;72.17;99361.26;217845;1259;140821;-66
2023/07/12 22:03:05;;;;;;;6.00;5.00;;;;;;;18.77;71.84;99376.96;218444;1259;161868;-67
2023/07/12 22:08:11;;;;;;;;;;;;;;;18.59;72.28;99388.45;219344;1259;140068;-64
2023/07/12 22:13:16;;;;;;;7.50;4.90;;;;;;;18.51;72.87;99391.59;218364;1259;127518;-72
2023/07/12 22:18:21;;;;;;;6.20;4.80;;;;;;;18.55;73.35;99395.30;219878;1257;140151;-69
2023/07/12 22:23:36;;;;;;;5.20;4.00;;;;;;;18.58;73.42;99395.77;218856;1257;140310;-67
2023/07/12 22:28:43;;;;;;;6.40;4.50;;;;;;;18.51;73.27;99390.02;219643;1257;140119;-68
2023/07/12 22:33:47;;;;;;;8.50;4.20;;;;;;;18.49;73.33;99391.02;218407;1256;140897;-70
2023/07/12 22:38:51;;;;;;;6.20;4.80;;;;;;;18.50;73.60;99397.21;219998;1256;578140;-69
2023/07/12 22:43:55;;;;;;;4.50;3.80;;;;;;;18.52;73.78;99398.16;220353;1256;141972;-67
2023/07/12 22:49:03;;;;;;;9.20;4.90;;;;;;;18.47;73.63;99405.10;219568;1259;140590;-68
2023/07/12 22:54:09;;;;;;;4.10;3.30;;;;;;;18.42;73.71;99396.42;218829;1260;140216;-75
2023/07/12 22:59:17;;;;;;;4.90;4.40;;;;;;;18.28;74.20;99394.88;218662;1257;142501;-74
2023/07/12 23:04:23;;;;;;;5.50;4.60;;;;;;;18.27;74.60;99400.56;220045;1257;141343;-70
2023/07/12 23:09:27;;;;;;;5.50;4.60;;;;;;;18.32;74.78;99407.83;218093;1259;140296;-71
2023/07/12 23:14:32;;;;;;;5.50;4.70;;;;;;;18.36;74.90;99403.36;218778;1257;139729;-71
2023/07/12 23:19:38;;;;;;;6.60;4.80;;;;;;;18.37;74.83;99402.45;218700;1257;140285;-69
2023/07/12 23:24:42;;;;;;;5.30;4.60;;;;;;;18.32;74.82;99400.10;218715;1256;140221;-70
2023/07/12 23:29:47;;;;;;;10.00;3.90;;;;;;;18.29;74.87;99392.28;218201;1257;142044;-70
2023/07/12 23:34:52;;;;;;;6.40;5.20;;;;;;;18.27;75.11;99387.72;217901;1260;140443;-70